Terminal Aerodrome Forecast
Issued by NWS

Home | Current Version | Previous Version | Graphics & Text | Print | Product List | Glossary Off
Versions: 1 2 3 4 5 6 7 8 9 10 11 12 13 14 15

000
FTUS43 KDDC 211720
TAFHYS
TAF
KHYS 211720Z 2118/2218 19015G20KT P6SM -RA FEW035 BKN080 OVC100
     FM211900 22018KT P6SM VCSH BKN200
     FM212100 19013G23KT P6SM BKN200
     FM220200 18008KT P6SM VCSH SCT250
     FM220300 19007KT P6SM VCTS SCT150CB
     FM220900 33005KT P6SM BKN140
     FM221200 36009KT P6SM SCT100
     FM221500 03013KT P6SM SCT120=

USA.gov is the U.S. government's official web portal to all federal, state and local government web resources and services.